createdAt,value
2023-05-14T00:01:25.422Z,102068.13
2023-05-14T00:03:52.088Z,102072.06
2023-05-14T00:06:18.605Z,102070.56
2023-05-14T00:08:45.245Z,102061.88
2023-05-14T00:11:11.911Z,102059.28
2023-05-14T00:13:38.511Z,102057.13
2023-05-14T00:16:05.484Z,102053.78
2023-05-14T00:18:32.185Z,102048.03
2023-05-14T00:20:58.599Z,102050.78
2023-05-14T00:23:25.171Z,102045.13
2023-05-14T00:25:51.649Z,102045.97
2023-05-14T00:28:18.076Z,102045.63
2023-05-14T00:30:44.771Z,102044.56
2023-05-14T00:33:11.333Z,102037.72
2023-05-14T00:35:37.884Z,102041.25
2023-05-14T00:38:04.529Z,102040.16
2023-05-14T00:40:31.287Z,102036.41
2023-05-14T00:42:57.846Z,102035.75
2023-05-14T00:45:24.598Z,102027.41
2023-05-14T00:47:51.723Z,102028.22
2023-05-14T00:50:18.551Z,102023.66
2023-05-14T00:52:45.173Z,102021.47
2023-05-14T00:55:16.351Z,102019.31
2023-05-14T00:57:43.387Z,102019.72
2023-05-14T01:00:10.623Z,102009.13
2023-05-14T01:02:37.085Z,102008.47
2023-05-14T01:05:04.190Z,102008.47
2023-05-14T01:07:45.627Z,102013.16
2023-05-14T01:10:19.851Z,102017.09
2023-05-14T01:13:12.688Z,102014.09
2023-05-14T01:15:41.789Z,102008.81
2023-05-14T01:18:13.663Z,102011.56
2023-05-14T01:20:40.223Z,102012.06
2023-05-14T01:23:07.919Z,102005.25
2023-05-14T01:25:35.310Z,102010.22
2023-05-14T01:28:23.690Z,102012.53
2023-05-14T01:30:53.965Z,102007.28
2023-05-14T01:33:22.304Z,102006.63
2023-05-14T01:35:49.645Z,102016.94
2023-05-14T01:38:18.920Z,102015.09
2023-05-14T01:40:46.938Z,102012.13
2023-05-14T01:43:15.093Z,102008.38
2023-05-14T01:45:42.541Z,102010.69
2023-05-14T01:48:09.291Z,102004.28
2023-05-14T01:50:35.852Z,101999.03
2023-05-14T01:53:02.987Z,102000.94
2023-05-14T01:55:29.549Z,101996.03
2023-05-14T01:57:56.262Z,102002.94
2023-05-14T02:00:25.309Z,102000.34
2023-05-14T02:02:52.068Z,101995.41
2023-05-14T02:05:18.838Z,101990.16
2023-05-14T02:07:45.476Z,101987.16
2023-05-14T02:10:11.928Z,101973.50
2023-05-14T02:12:38.388Z,101975.81
2023-05-14T02:15:05.607Z,101972.47
2023-05-14T02:17:32.274Z,101972.88
2023-05-14T02:19:58.845Z,101977.47
2023-05-14T02:22:25.466Z,101973.72
2023-05-14T02:24:52.454Z,101984.06
2023-05-14T02:27:18.956Z,101986.81
2023-05-14T02:29:45.447Z,101974.66
2023-05-14T02:32:11.901Z,101976.22
2023-05-14T02:34:39.185Z,101978.13
2023-05-14T02:37:05.934Z,101973.63
2023-05-14T02:39:32.528Z,101968.69
2023-05-14T02:41:59.081Z,101963.78
2023-05-14T02:44:25.561Z,101967.63
2023-05-14T02:46:52.044Z,101967.28
2023-05-14T02:49:18.494Z,101968.84
2023-05-14T02:51:44.986Z,101963.94
2023-05-14T02:54:16.416Z,101963.59
2023-05-14T02:56:43.163Z,101967.06
2023-05-14T02:59:09.641Z,101966.31
2023-05-14T03:01:36.729Z,101963.31
2023-05-14T03:04:03.705Z,101962.22
2023-05-14T03:06:31.126Z,101962.63
2023-05-14T03:08:57.628Z,101965.72
2023-05-14T03:11:24.134Z,101963.47
2023-05-14T03:13:50.602Z,101950.53
2023-05-14T03:16:17.078Z,101962.38
2023-05-14T03:18:43.602Z,101949.91
2023-05-14T03:21:10.402Z,101955.63
2023-05-14T03:23:36.904Z,101964.44
2023-05-14T03:26:04.812Z,101959.53
2023-05-14T03:28:31.275Z,101958.00
2023-05-14T03:30:59.924Z,101959.94
2023-05-14T03:33:26.605Z,101958.84
2023-05-14T03:35:53.068Z,101958.84
2023-05-14T03:38:20.997Z,101959.25
2023-05-14T03:40:47.709Z,101960.81
2023-05-14T03:43:14.314Z,101957.41
2023-05-14T03:45:41.338Z,101958.16
2023-05-14T03:48:08.088Z,101963.47
2023-05-14T03:50:35.306Z,101955.50
2023-05-14T03:53:01.851Z,101956.66
2023-05-14T03:55:29.966Z,101955.16
2023-05-14T03:57:56.511Z,101947.16
2023-05-14T04:00:23.497Z,101946.75
2023-05-14T04:02:52.150Z,101947.50
2023-05-14T04:05:18.678Z,101946.34
2023-05-14T04:07:46.166Z,101930.34
2023-05-14T04:10:13.494Z,101950.50
2023-05-14T04:12:40.021Z,101941.75
2023-05-14T04:15:07.377Z,101937.94
2023-05-14T04:17:35.058Z,101940.19
2023-05-14T04:20:01.670Z,101945.88
2023-05-14T04:22:28.113Z,101947.38
2023-05-14T04:24:54.592Z,101932.13
2023-05-14T04:27:21.590Z,101935.88
2023-05-14T04:29:49.244Z,101944.63
2023-05-14T04:32:16.068Z,101933.56
2023-05-14T04:34:42.556Z,101940.75
2023-05-14T04:37:09.242Z,101935.72
2023-05-14T04:39:35.906Z,101940.97
2023-05-14T04:42:02.414Z,101939.34
2023-05-14T04:44:28.915Z,101943.78
2023-05-14T04:46:55.582Z,101938.22
2023-05-14T04:49:22.281Z,101938.69
2023-05-14T04:51:49.324Z,101944.53
2023-05-14T04:54:15.918Z,101938.81
2023-05-14T04:56:42.417Z,101940.25
2023-05-14T04:59:08.885Z,101959.31
2023-05-14T05:01:35.505Z,101947.59
2023-05-14T05:04:02.244Z,101947.81
2023-05-14T05:06:28.684Z,101948.66
2023-05-14T05:08:55.798Z,101956.59
2023-05-14T05:11:22.290Z,101954.34
2023-05-14T05:13:48.779Z,101950.16
2023-05-14T05:16:15.592Z,101955.38
2023-05-14T05:18:42.235Z,101949.31
2023-05-14T05:21:08.753Z,101946.59
2023-05-14T05:23:35.344Z,101960.31
2023-05-14T05:26:01.892Z,101955.38
2023-05-14T05:28:28.437Z,101955.94
2023-05-14T05:30:55.176Z,101963.56
2023-05-14T05:33:21.783Z,101963.84
2023-05-14T05:35:49.856Z,101968.88
2023-05-14T05:38:18.255Z,101971.69
2023-05-14T05:40:44.795Z,101967.78
2023-05-14T05:43:11.563Z,101959.22
2023-05-14T05:45:38.033Z,101958.63
2023-05-14T05:48:04.818Z,101960.09
2023-05-14T05:50:32.159Z,101966.44
2023-05-14T05:52:59.272Z,101968.13
2023-05-14T05:55:25.917Z,101970.09
2023-05-14T05:57:52.524Z,101973.84
2023-05-14T06:00:19.445Z,101965.69
2023-05-14T06:02:46.748Z,101964.75
2023-05-14T06:05:13.387Z,101970.06
2023-05-14T06:07:39.883Z,101969.88
2023-05-14T06:10:06.997Z,101972.78
2023-05-14T06:12:33.422Z,101969.44
2023-05-14T06:14:59.901Z,101967.03
2023-05-14T06:17:27.007Z,101974.31
2023-05-14T06:19:53.477Z,101975.19
2023-05-14T06:22:20.037Z,101972.91
2023-05-14T06:24:46.546Z,101977.41
2023-05-14T06:27:13.068Z,101981.91
2023-05-14T06:29:39.511Z,101984.66
2023-05-14T06:32:06.557Z,101989.72
2023-05-14T06:34:33.151Z,101983.03
2023-05-14T06:37:00.279Z,101985.50
2023-05-14T06:39:26.749Z,101975.94
2023-05-14T06:41:53.267Z,101989.38
2023-05-14T06:44:22.009Z,101965.28
2023-05-14T06:46:48.524Z,101975.13
2023-05-14T06:49:15.113Z,101983.78
2023-05-14T06:51:41.846Z,101972.72
2023-05-14T06:54:08.641Z,101981.34
2023-05-14T06:56:35.075Z,101968.97
2023-05-14T06:59:01.612Z,101971.16
2023-05-14T07:01:28.264Z,101966.34
2023-05-14T07:03:54.804Z,101961.66
2023-05-14T07:06:21.313Z,101960.06
2023-05-14T07:08:48.027Z,101968.34
2023-05-14T07:11:14.688Z,101963.69
2023-05-14T07:13:41.768Z,101964.69
2023-05-14T07:16:11.438Z,101970.72
2023-05-14T07:18:38.200Z,101978.88
2023-05-14T07:21:06.323Z,101975.16
2023-05-14T07:23:38.690Z,101969.59
2023-05-14T07:26:05.999Z,101970.88
2023-05-14T07:28:32.744Z,101973.91
2023-05-14T07:30:59.767Z,101969.06
2023-05-14T07:33:26.676Z,101965.06
2023-05-14T07:35:54.004Z,101965.78
2023-05-14T07:38:21.109Z,101970.72
2023-05-14T07:40:47.623Z,101967.03
2023-05-14T07:43:14.079Z,101968.06
2023-05-14T07:45:40.734Z,101958.59
2023-05-14T07:48:07.366Z,101960.34
2023-05-14T07:50:33.979Z,101955.72
2023-05-14T07:53:00.530Z,101962.56
2023-05-14T07:55:26.985Z,101954.47
2023-05-14T07:57:53.466Z,101952.22
2023-05-14T08:00:20.079Z,101959.97
2023-05-14T08:02:47.112Z,101952.91
2023-05-14T08:05:13.665Z,101961.88
2023-05-14T08:07:40.221Z,101963.09
2023-05-14T08:10:07.797Z,101966.75
2023-05-14T08:12:34.346Z,101960.16
2023-05-14T08:15:00.775Z,101952.69
2023-05-14T08:17:27.315Z,101953.34
2023-05-14T08:19:54.127Z,101953.63
2023-05-14T08:22:20.670Z,101958.22
2023-05-14T08:24:47.178Z,101955.06
2023-05-14T08:27:13.664Z,101962.69
2023-05-14T08:29:40.175Z,101964.97
2023-05-14T08:32:15.916Z,101962.00
2023-05-14T08:34:49.757Z,101960.78
2023-05-14T08:37:16.157Z,101957.94
2023-05-14T08:39:42.627Z,101958.00
2023-05-14T08:42:12.569Z,101946.22
2023-05-14T08:44:47.608Z,101958.94
2023-05-14T08:47:16.204Z,101949.88
2023-05-14T08:49:44.787Z,101942.97
2023-05-14T08:52:11.847Z,101928.41
2023-05-14T08:54:40.063Z,101932.94
2023-05-14T08:57:09.670Z,101939.38
2023-05-14T08:59:36.270Z,101936.78
2023-05-14T09:02:04.964Z,101944.28
2023-05-14T09:04:32.659Z,101936.88
2023-05-14T09:07:01.651Z,101931.72
2023-05-14T09:09:28.374Z,101933.84
2023-05-14T09:11:54.846Z,101926.16
2023-05-14T09:14:23.242Z,101926.56
2023-05-14T09:16:51.209Z,101931.03
2023-05-14T09:19:19.387Z,101921.53
2023-05-14T09:21:47.415Z,101919.84
2023-05-14T09:24:24.499Z,101919.47
2023-05-14T09:26:53.458Z,101915.31
2023-05-14T09:29:20.760Z,101919.25
2023-05-14T09:31:50.818Z,101913.81
2023-05-14T09:34:28.615Z,101915.31
2023-05-14T09:37:02.621Z,101906.97
2023-05-14T09:39:29.712Z,101908.75
2023-05-14T09:41:56.732Z,101907.75
2023-05-14T09:44:24.063Z,101905.50
2023-05-14T09:46:51.143Z,101904.81
2023-05-14T09:49:18.017Z,101901.38
2023-05-14T09:51:44.669Z,101903.63
2023-05-14T09:54:11.184Z,101905.59
2023-05-14T09:56:39.447Z,101903.88
2023-05-14T09:59:06.175Z,101907.53
2023-05-14T10:01:33.312Z,101901.38
2023-05-14T10:04:01.120Z,101897.91
2023-05-14T10:06:30.621Z,101898.41
2023-05-14T10:09:04.185Z,101896.41
2023-05-14T10:11:33.562Z,101895.41
2023-05-14T10:14:07.856Z,101893.44
2023-05-14T10:16:37.937Z,101895.16
2023-05-14T10:19:10.377Z,101896.63
2023-05-14T10:21:38.613Z,101892.31
2023-05-14T10:24:06.830Z,101891.63
2023-05-14T10:26:38.971Z,101884.91
2023-05-14T10:29:06.344Z,101884.66
2023-05-14T10:31:55.727Z,101872.84
2023-05-14T10:34:31.395Z,101875.22
2023-05-14T10:37:02.090Z,101875.34
2023-05-14T10:39:46.052Z,101882.75
2023-05-14T10:42:24.716Z,101885.31
2023-05-14T10:44:55.458Z,101875.97
2023-05-14T10:47:22.455Z,101871.78
2023-05-14T10:49:49.546Z,101864.03
2023-05-14T10:52:19.245Z,101862.72
2023-05-14T10:54:51.003Z,101858.44
2023-05-14T10:57:19.674Z,101856.22
2023-05-14T10:59:48.209Z,101857.44
2023-05-14T11:02:29.118Z,101856.84
2023-05-14T11:05:06.550Z,101862.44
2023-05-14T11:07:35.942Z,101853.69
2023-05-14T11:10:14.325Z,101851.72
2023-05-14T11:12:43.140Z,101854.59
2023-05-14T11:15:11.935Z,101845.63
2023-05-14T11:17:40.552Z,101847.50
2023-05-14T11:20:07.993Z,101841.44
2023-05-14T11:22:35.395Z,101843.47
2023-05-14T11:25:02.058Z,101834.78
2023-05-14T11:27:29.473Z,101838.97
2023-05-14T11:29:56.153Z,101838.03
2023-05-14T11:32:22.638Z,101831.69
2023-05-14T11:34:49.377Z,101827.47
2023-05-14T11:37:16.749Z,101827.34
2023-05-14T11:39:50.684Z,101829.09
2023-05-14T11:42:18.758Z,101820.06
2023-05-14T11:44:53.832Z,101820.50
2023-05-14T11:47:21.822Z,101813.22
2023-05-14T11:49:49.153Z,101815.13
2023-05-14T11:52:19.358Z,101808.88
2023-05-14T11:54:46.737Z,101817.44
2023-05-14T11:57:16.175Z,101811.78
2023-05-14T11:59:43.403Z,101814.44
2023-05-14T12:02:15.300Z,101818.13
2023-05-14T12:04:42.854Z,101810.31
2023-05-14T12:07:11.283Z,101806.00
2023-05-14T12:09:49.256Z,101803.88
2023-05-14T12:12:18.447Z,101798.28
2023-05-14T12:14:45.458Z,101797.41
2023-05-14T12:17:17.846Z,101791.88
2023-05-14T12:19:46.009Z,101790.47
2023-05-14T12:22:15.582Z,101791.09
2023-05-14T12:24:43.505Z,101797.50
2023-05-14T12:27:10.805Z,101789.75
2023-05-14T12:29:38.973Z,101788.44
2023-05-14T12:32:09.728Z,101784.41
2023-05-14T12:34:37.699Z,101786.66
2023-05-14T12:37:05.287Z,101782.97
2023-05-14T12:39:33.401Z,101773.69
2023-05-14T12:41:59.850Z,101770.28
2023-05-14T12:44:26.295Z,101773.66
2023-05-14T12:46:52.829Z,101770.72
2023-05-14T12:49:19.668Z,101770.78
2023-05-14T12:51:46.929Z,101769.94
2023-05-14T12:54:15.696Z,101763.25
2023-05-14T12:56:42.508Z,101766.78
2023-05-14T12:59:09.566Z,101762.72
2023-05-14T13:01:37.700Z,101759.72
2023-05-14T13:04:05.452Z,101761.94
2023-05-14T13:06:32.559Z,101760.69
2023-05-14T13:09:01.618Z,101760.69
2023-05-14T13:11:30.275Z,101753.13
2023-05-14T13:13:56.749Z,101753.94
2023-05-14T13:16:23.321Z,101750.88
2023-05-14T13:18:49.793Z,101752.25
2023-05-14T13:21:16.281Z,101753.66
2023-05-14T13:23:42.685Z,101748.94
2023-05-14T13:26:09.716Z,101746.22
2023-05-14T13:28:36.145Z,101742.91
2023-05-14T13:31:08.525Z,101751.44
2023-05-14T13:33:36.388Z,101742.69
2023-05-14T13:36:03.497Z,101740.97
2023-05-14T13:38:30.061Z,101742.84
2023-05-14T13:41:01.688Z,101736.69
2023-05-14T13:43:29.687Z,101737.53
2023-05-14T13:45:56.527Z,101726.13
2023-05-14T13:48:24.227Z,101732.09
2023-05-14T13:50:51.891Z,101728.63
2023-05-14T13:53:23.016Z,101731.00
2023-05-14T13:55:50.771Z,101721.59
2023-05-14T13:58:17.271Z,101723.88
2023-05-14T14:00:43.748Z,101724.69
2023-05-14T14:03:10.422Z,101718.28
2023-05-14T14:05:37.201Z,101712.66
2023-05-14T14:08:17.857Z,101714.75
2023-05-14T14:10:49.749Z,101710.25
2023-05-14T14:13:16.339Z,101715.59
2023-05-14T14:15:43.695Z,101708.13
2023-05-14T14:18:10.434Z,101702.28
2023-05-14T14:20:36.907Z,101704.34
2023-05-14T14:23:03.301Z,101702.31
2023-05-14T14:25:29.787Z,101700.66
2023-05-14T14:27:56.353Z,101692.97
2023-05-14T14:30:22.819Z,101693.84
2023-05-14T14:32:49.684Z,101693.50
2023-05-14T14:35:18.129Z,101696.63
2023-05-14T14:37:48.913Z,101700.84
2023-05-14T14:40:16.885Z,101690.53
2023-05-14T14:42:43.399Z,101687.41
2023-05-14T14:45:10.285Z,101687.41
2023-05-14T14:47:36.718Z,101686.88
2023-05-14T14:50:03.462Z,101689.28
2023-05-14T14:52:29.956Z,101688.56
2023-05-14T14:54:56.504Z,101696.28
2023-05-14T14:57:23.171Z,101699.31
2023-05-14T14:59:49.662Z,101690.91
2023-05-14T15:02:16.423Z,101682.00
2023-05-14T15:04:42.955Z,101690.97
2023-05-14T15:07:09.557Z,101688.28
2023-05-14T15:09:36.124Z,101688.00
2023-05-14T15:12:02.528Z,101687.59
2023-05-14T15:14:29.052Z,101689.72
2023-05-14T15:16:55.664Z,101685.91
2023-05-14T15:19:23.359Z,101684.69
2023-05-14T15:21:50.097Z,101681.69
2023-05-14T15:24:16.553Z,101680.00
2023-05-14T15:26:42.986Z,101679.22
2023-05-14T15:29:09.499Z,101678.00
2023-05-14T15:31:35.963Z,101670.91
2023-05-14T15:34:03.578Z,101679.63
2023-05-14T15:36:30.101Z,101666.34
2023-05-14T15:38:56.553Z,101670.03
2023-05-14T15:41:23.051Z,101662.41
2023-05-14T15:43:49.516Z,101662.38
2023-05-14T15:46:16.043Z,101660.72
2023-05-14T15:48:42.609Z,101662.69
2023-05-14T15:51:09.056Z,101656.78
2023-05-14T15:53:35.602Z,101660.03
2023-05-14T15:56:02.793Z,101647.25
2023-05-14T15:58:29.279Z,101655.41
2023-05-14T16:00:56.013Z,101650.69
2023-05-14T16:03:22.600Z,101658.84
2023-05-14T16:05:49.264Z,101649.25
2023-05-14T16:08:15.756Z,101656.16
2023-05-14T16:10:42.164Z,101659.88
2023-05-14T16:13:08.729Z,101663.56
2023-05-14T16:15:35.208Z,101655.44
2023-05-14T16:18:01.850Z,101671.69
2023-05-14T16:20:28.420Z,101668.50
2023-05-14T16:22:54.919Z,101669.28
2023-05-14T16:25:21.396Z,101672.47
2023-05-14T16:27:47.850Z,101661.63
2023-05-14T16:30:14.306Z,101659.91
2023-05-14T16:32:42.062Z,101661.63
2023-05-14T16:35:09.879Z,101663.09
2023-05-14T16:37:36.375Z,101659.13
2023-05-14T16:40:03.099Z,101655.19
2023-05-14T16:42:29.575Z,101651.47
2023-05-14T16:44:56.008Z,101656.13
2023-05-14T16:47:22.457Z,101660.78
2023-05-14T16:49:49.003Z,101659.06
2023-05-14T16:52:15.524Z,101667.16
2023-05-14T16:54:41.966Z,101667.88
2023-05-14T16:57:08.488Z,101670.31
2023-05-14T16:59:34.917Z,101673.25
2023-05-14T17:02:01.475Z,101670.28
2023-05-14T17:04:27.991Z,101676.88
2023-05-14T17:06:55.228Z,101679.06
2023-05-14T17:09:21.712Z,101677.78
2023-05-14T17:11:48.213Z,101678.97
2023-05-14T17:14:14.888Z,101681.59
2023-05-14T17:16:42.325Z,101673.72
2023-05-14T17:19:08.828Z,101669.00
2023-05-14T17:21:35.449Z,101672.38
2023-05-14T17:24:01.867Z,101670.31
2023-05-14T17:26:30.336Z,101681.06
2023-05-14T17:28:56.807Z,101683.59
2023-05-14T17:31:23.672Z,101683.44
2023-05-14T17:33:50.232Z,101677.25
2023-05-14T17:36:16.674Z,101684.72
2023-05-14T17:38:43.168Z,101675.28
2023-05-14T17:41:09.796Z,101675.69
2023-05-14T17:43:36.204Z,101684.47
2023-05-14T17:46:03.447Z,101673.50
2023-05-14T17:48:29.996Z,101677.63
2023-05-14T17:50:56.486Z,101680.50
2023-05-14T17:53:22.996Z,101687.56
2023-05-14T17:55:50.077Z,101684.63
2023-05-14T17:58:16.576Z,101691.06
2023-05-14T18:00:43.716Z,101691.13
2023-05-14T18:03:11.957Z,101694.72
2023-05-14T18:05:38.629Z,101696.13
2023-05-14T18:08:05.405Z,101699.56
2023-05-14T18:10:31.943Z,101701.44
2023-05-14T18:12:58.773Z,101700.19
2023-05-14T18:15:27.246Z,101701.34
2023-05-14T18:17:54.135Z,101702.72
2023-05-14T18:20:20.679Z,101705.03
2023-05-14T18:22:47.135Z,101699.00
2023-05-14T18:25:13.839Z,101701.59
2023-05-14T18:27:44.304Z,101709.66
2023-05-14T18:30:15.645Z,101708.69
2023-05-14T18:32:44.610Z,101707.09
2023-05-14T18:35:12.267Z,101718.94
2023-05-14T18:37:38.809Z,101708.53
2023-05-14T18:40:06.914Z,101710.56
2023-05-14T18:42:33.863Z,101713.72
2023-05-14T18:45:00.426Z,101713.28
2023-05-14T18:47:27.019Z,101715.56
2023-05-14T18:49:55.756Z,101723.66
2023-05-14T18:52:22.859Z,101722.25
2023-05-14T18:54:50.780Z,101718.69
2023-05-14T18:57:17.316Z,101725.31
2023-05-14T18:59:43.808Z,101726.53
2023-05-14T19:02:10.345Z,101719.38
2023-05-14T19:04:50.780Z,101726.28
2023-05-14T19:07:18.211Z,101727.19
2023-05-14T19:09:44.693Z,101734.06
2023-05-14T19:12:11.283Z,101732.00
2023-05-14T19:14:37.726Z,101718.44
2023-05-14T19:17:04.840Z,101726.34
2023-05-14T19:19:31.615Z,101731.41
2023-05-14T19:21:58.016Z,101724.72
2023-05-14T19:24:24.772Z,101720.56
2023-05-14T19:26:51.347Z,101723.97
2023-05-14T19:29:17.816Z,101723.84
2023-05-14T19:31:44.735Z,101716.69
2023-05-14T19:34:11.262Z,101718.47
2023-05-14T19:36:37.800Z,101724.75
2023-05-14T19:39:04.384Z,101718.94
2023-05-14T19:41:30.971Z,101721.63
2023-05-14T19:43:57.510Z,101726.97
2023-05-14T19:46:24.164Z,101731.88
2023-05-14T19:48:50.608Z,101724.88
2023-05-14T19:51:17.020Z,101718.00
2023-05-14T19:53:43.557Z,101716.03
2023-05-14T19:56:10.057Z,101725.09
2023-05-14T19:58:36.564Z,101718.69
2023-05-14T20:01:03.123Z,101722.41
2023-05-14T20:03:29.785Z,101728.28
2023-05-14T20:05:56.390Z,101723.53
2023-05-14T20:08:22.844Z,101721.25
2023-05-14T20:10:49.461Z,101718.84
2023-05-14T20:13:16.127Z,101725.22
2023-05-14T20:15:45.385Z,101724.91
2023-05-14T20:18:12.110Z,101726.53
2023-05-14T20:20:39.839Z,101719.81
2023-05-14T20:23:06.341Z,101725.91
2023-05-14T20:25:33.261Z,101718.47
2023-05-14T20:28:02.473Z,101710.56
2023-05-14T20:30:28.926Z,101713.38
2023-05-14T20:32:55.783Z,101710.84
2023-05-14T20:35:22.562Z,101704.13
2023-05-14T20:37:49.500Z,101710.78
2023-05-14T20:40:16.042Z,101710.91
2023-05-14T20:42:42.561Z,101707.16
2023-05-14T20:45:09.584Z,101706.13
2023-05-14T20:47:36.402Z,101706.56
2023-05-14T20:50:03.225Z,101704.31
2023-05-14T20:52:29.741Z,101699.53
2023-05-14T20:54:56.206Z,101705.34
2023-05-14T20:57:22.791Z,101701.59
2023-05-14T20:59:49.293Z,101699.06
2023-05-14T21:02:15.974Z,101689.66
2023-05-14T21:04:42.816Z,101692.13
2023-05-14T21:07:09.391Z,101692.25
2023-05-14T21:09:35.811Z,101687.03
2023-05-14T21:12:02.291Z,101688.22
2023-05-14T21:14:28.792Z,101687.91
2023-05-14T21:16:55.333Z,101687.28
2023-05-14T21:19:22.721Z,101694.97
2023-05-14T21:21:49.295Z,101693.81
2023-05-14T21:24:16.716Z,101694.66
2023-05-14T21:26:43.325Z,101697.94
2023-05-14T21:29:09.940Z,101693.44
2023-05-14T21:31:36.524Z,101697.69
2023-05-14T21:34:03.006Z,101695.47
2023-05-14T21:36:29.460Z,101695.56
2023-05-14T21:38:55.917Z,101700.41
2023-05-14T21:41:22.400Z,101690.56
2023-05-14T21:43:48.889Z,101688.03
2023-05-14T21:46:16.235Z,101681.94
2023-05-14T21:48:42.768Z,101677.03
2023-05-14T21:51:09.246Z,101669.13
2023-05-14T21:53:35.761Z,101670.28
2023-05-14T21:56:02.272Z,101675.31
2023-05-14T21:58:28.706Z,101678.25
2023-05-14T22:00:55.160Z,101672.28
2023-05-14T22:03:21.639Z,101676.97
2023-05-14T22:05:49.131Z,101675.16
2023-05-14T22:08:17.481Z,101666.09
2023-05-14T22:10:44.340Z,101671.53
2023-05-14T22:13:10.979Z,101667.81
2023-05-14T22:15:37.938Z,101664.38
2023-05-14T22:18:04.775Z,101659.47
2023-05-14T22:20:31.276Z,101658.41
2023-05-14T22:22:57.775Z,101665.34
2023-05-14T22:25:24.501Z,101664.28
2023-05-14T22:27:51.243Z,101656.72
2023-05-14T22:30:17.724Z,101658.00
2023-05-14T22:32:44.299Z,101655.75
2023-05-14T22:35:11.218Z,101658.84
2023-05-14T22:37:37.755Z,101650.56
2023-05-14T22:40:05.224Z,101652.91
2023-05-14T22:42:31.691Z,101649.91
2023-05-14T22:44:58.131Z,101650.78
2023-05-14T22:47:25.742Z,101644.78
2023-05-14T22:49:52.633Z,101640.72
2023-05-14T22:52:19.101Z,101640.41
2023-05-14T22:54:46.521Z,101636.69
2023-05-14T22:57:13.055Z,101633.69
2023-05-14T22:59:39.536Z,101632.19
2023-05-14T23:02:06.767Z,101626.22
2023-05-14T23:04:33.428Z,101623.22
2023-05-14T23:06:59.899Z,101623.75
2023-05-14T23:09:26.383Z,101617.25
2023-05-14T23:11:52.904Z,101615.00
2023-05-14T23:14:19.555Z,101626.75
2023-05-14T23:16:46.067Z,101624.50
2023-05-14T23:19:12.684Z,101627.91
2023-05-14T23:21:39.329Z,101631.75
2023-05-14T23:24:06.221Z,101623.75
2023-05-14T23:26:32.884Z,101623.75
2023-05-14T23:28:59.287Z,101619.59
2023-05-14T23:31:25.862Z,101614.69
2023-05-14T23:33:52.299Z,101609.81
2023-05-14T23:36:18.928Z,101610.53
2023-05-14T23:38:45.726Z,101600.28
2023-05-14T23:41:12.326Z,101600.28
2023-05-14T23:43:38.811Z,101593.78
2023-05-14T23:46:05.599Z,101591.13
2023-05-14T23:48:32.577Z,101587.69
2023-05-14T23:50:59.086Z,101580.13
2023-05-14T23:53:25.746Z,101577.13
2023-05-14T23:55:52.352Z,101574.25
2023-05-14T23:58:18.979Z,101573.72
